Boscobel, Wisconsin
Current Conditions -  °F | °C
As of 4:53 AM on Thursday 27 Nov 2014 (Local Time) from KOVS Reporting Station
Overcast Overcast  
Wind Chill: 16°   Ceiling: 2100
Heat Index: 25°   Visibility: 10mi
Dew Point: 17°   Wind: 8mph
Humidity: 72%   Direction: 330°NNW
Pressure: 30.34"   Gusts: NA
Location:  43.13°N, 90.71°W
Report Text: KOVS 271053Z AUTO 33007KT 10SM OVC021 M04/M08 A3034 RMK AO2 SLP286 T10391083
Loading
Personal Weather Stations






























Interactive Weather Map New forecast layout! Learn more

10-Day Weather Forecast

Advertisements
Track Severe Weather on mobile